sensor_id;sensor_type;location;lat;lon;timestamp;pressure;altitude;pressure_sealevel;temperature;humidity
40117;BME280;25829;50.228;18.936;2022-12-10T00:00:50;97229.41;;;0.24;80.46
40117;BME280;25829;50.228;18.936;2022-12-10T00:03:51;97231.28;;;0.30;80.39
40117;BME280;25829;50.228;18.936;2022-12-10T00:06:52;97232.72;;;0.33;79.96
40117;BME280;25829;50.228;18.936;2022-12-10T00:09:53;97237.91;;;0.33;80.06
40117;BME280;25829;50.228;18.936;2022-12-10T00:12:54;97232.38;;;0.36;79.70
40117;BME280;25829;50.228;18.936;2022-12-10T00:15:54;97238.09;;;0.31;80.04
40117;BME280;25829;50.228;18.936;2022-12-10T00:18:55;97241.50;;;0.32;80.00
40117;BME280;25829;50.228;18.936;2022-12-10T00:21:56;97236.94;;;0.34;80.33
40117;BME280;25829;50.228;18.936;2022-12-10T00:24:57;97229.97;;;0.34;80.01
40117;BME280;25829;50.228;18.936;2022-12-10T00:27:58;97238.97;;;0.24;80.31
40117;BME280;25829;50.228;18.936;2022-12-10T00:31:03;97236.13;;;0.10;80.35
40117;BME280;25829;50.228;18.936;2022-12-10T00:34:07;97224.00;;;0.03;80.74
40117;BME280;25829;50.228;18.936;2022-12-10T00:37:08;97232.13;;;-0.00;81.39
40117;BME280;25829;50.228;18.936;2022-12-10T00:40:09;97229.19;;;0.03;81.59
40117;BME280;25829;50.228;18.936;2022-12-10T00:43:11;97233.22;;;0.05;81.13
40117;BME280;25829;50.228;18.936;2022-12-10T00:46:13;97233.06;;;0.07;80.88
40117;BME280;25829;50.228;18.936;2022-12-10T00:49:14;97235.00;;;0.05;81.26
40117;BME280;25829;50.228;18.936;2022-12-10T00:52:15;97233.69;;;0.09;81.20
40117;BME280;25829;50.228;18.936;2022-12-10T00:55:16;97237.59;;;0.05;81.37
40117;BME280;25829;50.228;18.936;2022-12-10T00:58:17;97231.63;;;0.04;81.06
40117;BME280;25829;50.228;18.936;2022-12-10T01:01:41;97239.22;;;0.06;81.12
40117;BME280;25829;50.228;18.936;2022-12-10T01:04:42;97245.38;;;0.05;81.10
40117;BME280;25829;50.228;18.936;2022-12-10T01:07:42;97248.91;;;0.12;81.52
40117;BME280;25829;50.228;18.936;2022-12-10T01:10:45;97253.09;;;0.13;81.32
40117;BME280;25829;50.228;18.936;2022-12-10T01:13:47;97253.56;;;0.17;80.56
40117;BME280;25829;50.228;18.936;2022-12-10T01:16:49;97254.69;;;0.22;81.21
40117;BME280;25829;50.228;18.936;2022-12-10T01:19:50;97238.97;;;0.24;80.96
40117;BME280;25829;50.228;18.936;2022-12-10T01:22:51;97244.50;;;0.21;80.77
40117;BME280;25829;50.228;18.936;2022-12-10T01:25:52;97253.41;;;0.18;80.72
40117;BME280;25829;50.228;18.936;2022-12-10T01:28:53;97251.47;;;0.20;80.68
40117;BME280;25829;50.228;18.936;2022-12-10T01:31:56;97250.81;;;0.18;80.88
40117;BME280;25829;50.228;18.936;2022-12-10T01:34:57;97265.53;;;0.26;80.45
40117;BME280;25829;50.228;18.936;2022-12-10T01:37:57;97271.34;;;0.28;80.13
40117;BME280;25829;50.228;18.936;2022-12-10T01:40:59;97271.81;;;0.31;80.71
40117;BME280;25829;50.228;18.936;2022-12-10T01:44:01;97274.97;;;0.19;80.20
40117;BME280;25829;50.228;18.936;2022-12-10T01:47:02;97277.09;;;0.15;80.81
40117;BME280;25829;50.228;18.936;2022-12-10T01:50:07;97273.50;;;0.16;80.93
40117;BME280;25829;50.228;18.936;2022-12-10T01:53:12;97263.84;;;0.10;80.80
40117;BME280;25829;50.228;18.936;2022-12-10T01:56:17;97266.91;;;0.14;81.51
40117;BME280;25829;50.228;18.936;2022-12-10T01:59:18;97270.44;;;0.21;80.89
40117;BME280;25829;50.228;18.936;2022-12-10T02:15:17;97277.56;;;0.19;80.50
40117;BME280;25829;50.228;18.936;2022-12-10T02:18:28;97295.56;;;0.20;80.85
40117;BME280;25829;50.228;18.936;2022-12-10T02:21:34;97297.75;;;0.31;80.77
40117;BME280;25829;50.228;18.936;2022-12-10T02:24:38;97301.28;;;0.39;80.91
40117;BME280;25829;50.228;18.936;2022-12-10T02:30:52;97306.47;;;0.62;80.50
40117;BME280;25829;50.228;18.936;2022-12-10T02:33:58;97300.78;;;0.66;79.33
40117;BME280;25829;50.228;18.936;2022-12-10T02:37:03;97304.34;;;0.65;79.67
40117;BME280;25829;50.228;18.936;2022-12-10T02:40:15;97293.34;;;0.63;79.57
40117;BME280;25829;50.228;18.936;2022-12-10T02:43:21;97294.84;;;0.57;79.57
40117;BME280;25829;50.228;18.936;2022-12-10T02:46:26;97290.16;;;0.53;79.55
40117;BME280;25829;50.228;18.936;2022-12-10T02:49:29;97282.56;;;0.51;79.45
40117;BME280;25829;50.228;18.936;2022-12-10T02:52:33;97279.66;;;0.46;79.63
40117;BME280;25829;50.228;18.936;2022-12-10T02:55:57;97279.53;;;0.40;79.37
40117;BME280;25829;50.228;18.936;2022-12-10T02:59:08;97289.47;;;0.36;79.84
40117;BME280;25829;50.228;18.936;2022-12-10T03:02:23;97285.06;;;0.36;80.14
40117;BME280;25829;50.228;18.936;2022-12-10T03:08:47;97288.53;;;0.29;80.71
40117;BME280;25829;50.228;18.936;2022-12-10T03:11:55;97301.78;;;0.34;80.36
40117;BME280;25829;50.228;18.936;2022-12-10T03:14:59;97293.31;;;0.40;80.44
40117;BME280;25829;50.228;18.936;2022-12-10T03:18:03;97298.34;;;0.42;79.69
40117;BME280;25829;50.228;18.936;2022-12-10T03:21:06;97318.59;;;0.46;79.72
40117;BME280;25829;50.228;18.936;2022-12-10T03:24:09;97305.63;;;0.46;79.79
40117;BME280;25829;50.228;18.936;2022-12-10T03:27:12;97310.00;;;0.46;79.92
40117;BME280;25829;50.228;18.936;2022-12-10T03:30:14;97312.75;;;0.44;79.74
40117;BME280;25829;50.228;18.936;2022-12-10T03:33:15;97309.75;;;0.32;80.21
40117;BME280;25829;50.228;18.936;2022-12-10T03:36:18;97311.69;;;0.30;80.18
40117;BME280;25829;50.228;18.936;2022-12-10T03:39:19;97314.13;;;0.32;79.80
40117;BME280;25829;50.228;18.936;2022-12-10T03:42:20;97322.38;;;0.35;80.06
40117;BME280;25829;50.228;18.936;2022-12-10T03:45:21;97328.69;;;0.41;80.39
40117;BME280;25829;50.228;18.936;2022-12-10T03:48:22;97337.72;;;0.45;79.96
40117;BME280;25829;50.228;18.936;2022-12-10T03:51:23;97327.16;;;0.47;79.69
40117;BME280;25829;50.228;18.936;2022-12-10T03:54:23;97330.91;;;0.44;79.58
40117;BME280;25829;50.228;18.936;2022-12-10T03:57:24;97335.63;;;0.41;79.96
40117;BME280;25829;50.228;18.936;2022-12-10T04:00:25;97339.41;;;0.38;80.36
40117;BME280;25829;50.228;18.936;2022-12-10T04:03:26;97325.44;;;0.39;80.22
40117;BME280;25829;50.228;18.936;2022-12-10T04:06:26;97328.56;;;0.26;79.96
40117;BME280;25829;50.228;18.936;2022-12-10T04:09:27;97335.72;;;0.24;80.21
40117;BME280;25829;50.228;18.936;2022-12-10T04:12:28;97336.53;;;0.25;80.58
40117;BME280;25829;50.228;18.936;2022-12-10T04:15:29;97337.34;;;0.25;80.08
40117;BME280;25829;50.228;18.936;2022-12-10T04:18:48;97338.34;;;0.24;80.29
40117;BME280;25829;50.228;18.936;2022-12-10T04:21:49;97344.66;;;0.22;80.29
40117;BME280;25829;50.228;18.936;2022-12-10T04:25:10;97356.16;;;0.19;80.36
40117;BME280;25829;50.228;18.936;2022-12-10T04:28:30;97355.22;;;0.20;80.64
40117;BME280;25829;50.228;18.936;2022-12-10T04:31:31;97368.19;;;0.20;80.24
40117;BME280;25829;50.228;18.936;2022-12-10T04:34:32;97380.13;;;0.29;80.86
40117;BME280;25829;50.228;18.936;2022-12-10T04:37:33;97381.41;;;0.33;80.08
40117;BME280;25829;50.228;18.936;2022-12-10T04:40:33;97377.66;;;0.36;80.30
40117;BME280;25829;50.228;18.936;2022-12-10T04:43:34;97382.00;;;0.44;80.04
40117;BME280;25829;50.228;18.936;2022-12-10T04:46:35;97385.53;;;0.51;79.96
40117;BME280;25829;50.228;18.936;2022-12-10T04:49:36;97388.81;;;0.45;79.63
40117;BME280;25829;50.228;18.936;2022-12-10T04:52:37;97385.25;;;0.46;79.57
40117;BME280;25829;50.228;18.936;2022-12-10T04:55:37;97397.53;;;0.52;79.85
40117;BME280;25829;50.228;18.936;2022-12-10T04:58:38;97390.69;;;0.59;79.43
40117;BME280;25829;50.228;18.936;2022-12-10T05:01:39;97402.81;;;0.67;79.71
40117;BME280;25829;50.228;18.936;2022-12-10T05:04:40;97388.84;;;0.68;78.80
40117;BME280;25829;50.228;18.936;2022-12-10T05:07:40;97397.97;;;0.64;79.23
40117;BME280;25829;50.228;18.936;2022-12-10T05:10:41;97404.47;;;0.59;78.94
40117;BME280;25829;50.228;18.936;2022-12-10T05:13:42;97414.34;;;0.64;79.33
40117;BME280;25829;50.228;18.936;2022-12-10T05:16:43;97417.88;;;0.71;79.25
40117;BME280;25829;50.228;18.936;2022-12-10T05:19:44;97410.75;;;0.65;78.57
40117;BME280;25829;50.228;18.936;2022-12-10T05:22:45;97412.97;;;0.45;78.97
40117;BME280;25829;50.228;18.936;2022-12-10T05:26:24;97415.78;;;0.35;79.02
40117;BME280;25829;50.228;18.936;2022-12-10T05:29:25;97410.97;;;0.24;79.51
40117;BME280;25829;50.228;18.936;2022-12-10T05:32:26;97414.22;;;0.18;79.30
40117;BME280;25829;50.228;18.936;2022-12-10T05:35:26;97401.56;;;0.15;80.22
40117;BME280;25829;50.228;18.936;2022-12-10T05:38:29;97400.91;;;0.13;79.91
40117;BME280;25829;50.228;18.936;2022-12-10T05:41:33;97391.72;;;0.10;79.67
40117;BME280;25829;50.228;18.936;2022-12-10T05:44:34;97392.53;;;0.03;80.52
40117;BME280;25829;50.228;18.936;2022-12-10T05:47:35;97393.19;;;0.05;80.56
40117;BME280;25829;50.228;18.936;2022-12-10T05:50:36;97397.84;;;0.09;80.00
40117;BME280;25829;50.228;18.936;2022-12-10T05:53:37;97394.31;;;0.10;80.32
40117;BME280;25829;50.228;18.936;2022-12-10T05:56:38;97386.34;;;0.12;80.01
40117;BME280;25829;50.228;18.936;2022-12-10T05:59:39;97390.53;;;0.13;80.77
40117;BME280;25829;50.228;18.936;2022-12-10T06:02:40;97381.97;;;0.12;80.42
40117;BME280;25829;50.228;18.936;2022-12-10T06:05:41;97373.88;;;0.07;80.14
40117;BME280;25829;50.228;18.936;2022-12-10T06:08:41;97377.81;;;0.03;80.73
40117;BME280;25829;50.228;18.936;2022-12-10T06:11:42;97370.50;;;-0.01;80.75
40117;BME280;25829;50.228;18.936;2022-12-10T06:18:09;97384.28;;;-0.01;80.59
40117;BME280;25829;50.228;18.936;2022-12-10T06:21:13;97403.06;;;0.01;80.72
40117;BME280;25829;50.228;18.936;2022-12-10T06:24:14;97416.22;;;-0.00;80.97
40117;BME280;25829;50.228;18.936;2022-12-10T06:27:15;97409.25;;;0.00;80.78
40117;BME280;25829;50.228;18.936;2022-12-10T06:30:16;97426.22;;;0.03;80.93
40117;BME280;25829;50.228;18.936;2022-12-10T06:33:17;97433.69;;;0.06;80.78
40117;BME280;25829;50.228;18.936;2022-12-10T06:36:18;97444.72;;;0.08;80.47
40117;BME280;25829;50.228;18.936;2022-12-10T06:39:19;97446.66;;;0.06;80.90
40117;BME280;25829;50.228;18.936;2022-12-10T06:42:20;97454.44;;;0.14;81.06
40117;BME280;25829;50.228;18.936;2022-12-10T06:45:21;97463.97;;;0.22;79.88
40117;BME280;25829;50.228;18.936;2022-12-10T06:48:22;97465.25;;;0.26;80.34
40117;BME280;25829;50.228;18.936;2022-12-10T06:51:22;97465.72;;;0.29;79.68
40117;BME280;25829;50.228;18.936;2022-12-10T06:54:23;97471.38;;;0.33;79.68
40117;BME280;25829;50.228;18.936;2022-12-10T06:57:24;97462.63;;;0.34;79.48
40117;BME280;25829;50.228;18.936;2022-12-10T07:00:26;97475.94;;;0.31;79.22
40117;BME280;25829;50.228;18.936;2022-12-10T07:03:27;97484.22;;;0.34;79.30
40117;BME280;25829;50.228;18.936;2022-12-10T07:06:27;97483.38;;;0.34;79.31
40117;BME280;25829;50.228;18.936;2022-12-10T07:09:29;97468.31;;;0.29;79.83
40117;BME280;25829;50.228;18.936;2022-12-10T07:12:30;97450.84;;;0.15;79.55
40117;BME280;25829;50.228;18.936;2022-12-10T07:15:31;97468.34;;;0.13;80.05
40117;BME280;25829;50.228;18.936;2022-12-10T07:23:22;97466.22;;;0.25;80.10
40117;BME280;25829;50.228;18.936;2022-12-10T09:18:03;97483.84;;;0.46;79.22
40117;BME280;25829;50.228;18.936;2022-12-10T09:21:05;97480.59;;;0.44;79.65
40117;BME280;25829;50.228;18.936;2022-12-10T09:28:12;97491.28;;;0.49;80.13
40117;BME280;25829;50.228;18.936;2022-12-10T09:31:15;97482.53;;;0.50;79.26
40117;BME280;25829;50.228;18.936;2022-12-10T09:34:16;97489.00;;;0.54;79.10
40117;BME280;25829;50.228;18.936;2022-12-10T09:37:18;97486.56;;;0.52;79.11
40117;BME280;25829;50.228;18.936;2022-12-10T09:47:08;97478.31;;;0.41;79.30
40117;BME280;25829;50.228;18.936;2022-12-10T09:50:26;97475.44;;;0.35;78.77
40117;BME280;25829;50.228;18.936;2022-12-10T09:53:38;97470.75;;;0.31;79.56
40117;BME280;25829;50.228;18.936;2022-12-10T09:57:26;97471.84;;;0.36;79.10
40117;BME280;25829;50.228;18.936;2022-12-10T10:00:39;97482.41;;;0.35;78.78
40117;BME280;25829;50.228;18.936;2022-12-10T10:03:42;97469.13;;;0.30;78.70
40117;BME280;25829;50.228;18.936;2022-12-10T10:06:43;97465.91;;;0.20;78.87
40117;BME280;25829;50.228;18.936;2022-12-10T10:09:44;97480.50;;;0.12;79.94
40117;BME280;25829;50.228;18.936;2022-12-10T10:12:45;97481.13;;;0.23;80.10
40117;BME280;25829;50.228;18.936;2022-12-10T10:15:47;97481.00;;;0.24;79.41
40117;BME280;25829;50.228;18.936;2022-12-10T10:18:59;97488.91;;;0.23;79.34
40117;BME280;25829;50.228;18.936;2022-12-10T10:22:01;97483.72;;;0.23;79.79
40117;BME280;25829;50.228;18.936;2022-12-10T10:25:05;97478.69;;;0.29;79.57
40117;BME280;25829;50.228;18.936;2022-12-10T10:28:11;97476.28;;;0.28;79.56
40117;BME280;25829;50.228;18.936;2022-12-10T10:31:27;97473.50;;;0.38;79.53
40117;BME280;25829;50.228;18.936;2022-12-10T10:34:28;97486.09;;;0.49;79.49
40117;BME280;25829;50.228;18.936;2022-12-10T10:40:40;97490.63;;;0.55;78.98
40117;BME280;25829;50.228;18.936;2022-12-10T10:48:33;97478.84;;;0.36;78.95
40117;BME280;25829;50.228;18.936;2022-12-10T10:51:42;97473.97;;;0.33;79.35
40117;BME280;25829;50.228;18.936;2022-12-10T10:54:47;97471.22;;;0.34;79.02
40117;BME280;25829;50.228;18.936;2022-12-10T10:57:51;97461.47;;;0.36;79.32
40117;BME280;25829;50.228;18.936;2022-12-10T11:00:58;97461.16;;;0.40;79.31
40117;BME280;25829;50.228;18.936;2022-12-10T11:04:00;97475.41;;;0.44;79.65
40117;BME280;25829;50.228;18.936;2022-12-10T11:07:03;97470.22;;;0.44;79.12
40117;BME280;25829;50.228;18.936;2022-12-10T11:10:20;97476.34;;;0.51;79.26
40117;BME280;25829;50.228;18.936;2022-12-10T11:13:26;97486.59;;;0.44;78.97
40117;BME280;25829;50.228;18.936;2022-12-10T11:16:27;97483.03;;;0.37;79.60
40117;BME280;25829;50.228;18.936;2022-12-10T11:19:28;97474.16;;;0.31;79.32
40117;BME280;25829;50.228;18.936;2022-12-10T11:22:31;97479.19;;;0.25;79.34
40117;BME280;25829;50.228;18.936;2022-12-10T11:33:24;97467.53;;;0.21;79.49
40117;BME280;25829;50.228;18.936;2022-12-10T11:37:04;97476.13;;;0.21;80.21
40117;BME280;25829;50.228;18.936;2022-12-10T11:43:35;97478.56;;;0.15;80.22
40117;BME280;25829;50.228;18.936;2022-12-10T11:47:13;97473.88;;;0.18;80.50
40117;BME280;25829;50.228;18.936;2022-12-10T11:53:46;97461.19;;;0.23;79.76
40117;BME280;25829;50.228;18.936;2022-12-10T12:06:57;97472.53;;;0.30;79.87
40117;BME280;25829;50.228;18.936;2022-12-10T12:13:38;97467.66;;;0.35;79.26
40117;BME280;25829;50.228;18.936;2022-12-10T12:16:55;97462.19;;;0.22;79.93
40117;BME280;25829;50.228;18.936;2022-12-10T12:20:30;97468.03;;;0.16;80.03
40117;BME280;25829;50.228;18.936;2022-12-10T12:23:55;97454.72;;;0.19;80.58
40117;BME280;25829;50.228;18.936;2022-12-10T12:27:37;97458.44;;;0.25;80.63
40117;BME280;25829;50.228;18.936;2022-12-10T12:30:41;97461.19;;;0.23;80.14
40117;BME280;25829;50.228;18.936;2022-12-10T12:37:30;97454.50;;;0.37;79.66
40117;BME280;25829;50.228;18.936;2022-12-10T12:44:17;97462.13;;;0.30;79.75
40117;BME280;25829;50.228;18.936;2022-12-10T12:47:42;97451.09;;;0.36;80.06
40117;BME280;25829;50.228;18.936;2022-12-10T12:54:44;97465.53;;;0.39;79.71
40117;BME280;25829;50.228;18.936;2022-12-10T13:04:52;97467.31;;;0.30;79.33
40117;BME280;25829;50.228;18.936;2022-12-10T13:15:40;97470.75;;;0.31;79.75
40117;BME280;25829;50.228;18.936;2022-12-10T13:18:42;97474.16;;;0.31;79.46
40117;BME280;25829;50.228;18.936;2022-12-10T13:25:17;97492.09;;;0.49;79.12
40117;BME280;25829;50.228;18.936;2022-12-10T13:33:10;97476.69;;;0.48;78.78
40117;BME280;25829;50.228;18.936;2022-12-10T13:39:53;97473.09;;;0.57;78.06
40117;BME280;25829;50.228;18.936;2022-12-10T13:46:56;97497.09;;;0.59;78.69
40117;BME280;25829;50.228;18.936;2022-12-10T13:50:01;97492.56;;;0.53;77.52
40117;BME280;25829;50.228;18.936;2022-12-10T13:57:09;97507.53;;;0.43;78.53
40117;BME280;25829;50.228;18.936;2022-12-10T14:00:35;97511.91;;;0.42;78.66
40117;BME280;25829;50.228;18.936;2022-12-10T14:04:10;97515.31;;;0.43;78.64
40117;BME280;25829;50.228;18.936;2022-12-10T14:07:16;97513.84;;;0.40;78.99
40117;BME280;25829;50.228;18.936;2022-12-10T14:10:21;97503.97;;;0.35;78.82
40117;BME280;25829;50.228;18.936;2022-12-10T14:13:32;97509.66;;;0.23;79.27
40117;BME280;25829;50.228;18.936;2022-12-10T14:16:34;97510.03;;;0.11;79.81
40117;BME280;25829;50.228;18.936;2022-12-10T14:19:36;97509.03;;;0.12;79.47
40117;BME280;25829;50.228;18.936;2022-12-10T14:22:39;97504.69;;;0.05;80.06
40117;BME280;25829;50.228;18.936;2022-12-10T14:25:45;97503.22;;;0.02;80.74
40117;BME280;25829;50.228;18.936;2022-12-10T14:28:49;97511.94;;;0.09;80.20
40117;BME280;25829;50.228;18.936;2022-12-10T14:31:50;97501.91;;;0.15;80.24
40117;BME280;25829;50.228;18.936;2022-12-10T14:34:56;97512.09;;;0.16;79.86
40117;BME280;25829;50.228;18.936;2022-12-10T14:37:59;97512.09;;;0.16;79.99
40117;BME280;25829;50.228;18.936;2022-12-10T14:41:02;97507.88;;;0.23;79.89
40117;BME280;25829;50.228;18.936;2022-12-10T14:44:03;97519.72;;;0.26;79.87
40117;BME280;25829;50.228;18.936;2022-12-10T14:47:05;97523.44;;;0.23;79.84
40117;BME280;25829;50.228;18.936;2022-12-10T14:50:15;97530.13;;;0.18;79.64
40117;BME280;25829;50.228;18.936;2022-12-10T14:53:23;97529.63;;;0.22;79.71
40117;BME280;25829;50.228;18.936;2022-12-10T14:56:38;97524.09;;;0.25;79.78
40117;BME280;25829;50.228;18.936;2022-12-10T15:00:05;97521.03;;;0.22;79.80
40117;BME280;25829;50.228;18.936;2022-12-10T15:03:10;97522.97;;;0.11;80.13
40117;BME280;25829;50.228;18.936;2022-12-10T15:06:14;97518.78;;;0.02;79.91
40117;BME280;25829;50.228;18.936;2022-12-10T15:09:20;97525.09;;;-0.08;80.53
40117;BME280;25829;50.228;18.936;2022-12-10T15:15:38;97518.31;;;-0.09;80.57
40117;BME280;25829;50.228;18.936;2022-12-10T15:18:39;97520.56;;;-0.06;80.91
40117;BME280;25829;50.228;18.936;2022-12-10T15:21:44;97513.94;;;-0.17;80.89
40117;BME280;25829;50.228;18.936;2022-12-10T15:24:45;97514.88;;;-0.18;81.63
40117;BME280;25829;50.228;18.936;2022-12-10T15:27:58;97516.69;;;-0.10;80.74
40117;BME280;25829;50.228;18.936;2022-12-10T15:34:20;97521.38;;;-0.22;81.35
40117;BME280;25829;50.228;18.936;2022-12-10T15:37:27;97519.25;;;-0.19;81.58
40117;BME280;25829;50.228;18.936;2022-12-10T15:40:32;97518.47;;;-0.19;81.04
40117;BME280;25829;50.228;18.936;2022-12-10T15:43:33;97510.53;;;-0.18;81.02
40117;BME280;25829;50.228;18.936;2022-12-10T15:54:00;97505.03;;;-0.31;81.37
40117;BME280;25829;50.228;18.936;2022-12-10T15:57:20;97499.66;;;-0.29;81.60
40117;BME280;25829;50.228;18.936;2022-12-10T16:00:27;97515.53;;;-0.41;81.33
40117;BME280;25829;50.228;18.936;2022-12-10T16:03:28;97519.28;;;-0.35;82.05
40117;BME280;25829;50.228;18.936;2022-12-10T16:06:32;97510.34;;;-0.32;81.82
40117;BME280;25829;50.228;18.936;2022-12-10T16:09:36;97510.19;;;-0.39;81.96
40117;BME280;25829;50.228;18.936;2022-12-10T16:12:47;97511.16;;;-0.32;82.25
40117;BME280;25829;50.228;18.936;2022-12-10T16:15:55;97517.50;;;-0.34;81.33
40117;BME280;25829;50.228;18.936;2022-12-10T16:18:57;97517.31;;;-0.33;82.04
40117;BME280;25829;50.228;18.936;2022-12-10T16:22:01;97514.75;;;-0.25;82.03
40117;BME280;25829;50.228;18.936;2022-12-10T16:25:02;97509.56;;;-0.17;81.93
40117;BME280;25829;50.228;18.936;2022-12-10T16:28:03;97511.03;;;-0.14;80.77
40117;BME280;25829;50.228;18.936;2022-12-10T16:31:04;97515.06;;;-0.20;81.27
40117;BME280;25829;50.228;18.936;2022-12-10T16:34:05;97508.44;;;-0.30;81.09
40117;BME280;25829;50.228;18.936;2022-12-10T16:37:06;97511.66;;;-0.28;81.27
40117;BME280;25829;50.228;18.936;2022-12-10T16:40:07;97505.34;;;-0.18;81.78
40117;BME280;25829;50.228;18.936;2022-12-10T16:46:25;97496.28;;;-0.30;81.16
40117;BME280;25829;50.228;18.936;2022-12-10T16:49:25;97508.09;;;-0.44;81.37
40117;BME280;25829;50.228;18.936;2022-12-10T16:52:35;97497.09;;;-0.38;81.86
40117;BME280;25829;50.228;18.936;2022-12-10T16:55:36;97498.06;;;-0.39;81.59
40117;BME280;25829;50.228;18.936;2022-12-10T16:58:37;97496.09;;;-0.28;81.51
40117;BME280;25829;50.228;18.936;2022-12-10T17:01:38;97488.84;;;-0.25;81.54
40117;BME280;25829;50.228;18.936;2022-12-10T17:04:42;97490.44;;;-0.32;81.28
40117;BME280;25829;50.228;18.936;2022-12-10T17:07:43;97491.06;;;-0.46;81.35
40117;BME280;25829;50.228;18.936;2022-12-10T17:10:48;97498.84;;;-0.46;81.95
40117;BME280;25829;50.228;18.936;2022-12-10T17:14:28;97503.25;;;-0.39;82.12
40117;BME280;25829;50.228;18.936;2022-12-10T17:17:29;97509.38;;;-0.48;82.04
40117;BME280;25829;50.228;18.936;2022-12-10T17:20:30;97507.75;;;-0.57;82.22
40117;BME280;25829;50.228;18.936;2022-12-10T17:23:30;97511.97;;;-0.56;82.72
40117;BME280;25829;50.228;18.936;2022-12-10T17:26:32;97522.47;;;-0.57;82.48
40117;BME280;25829;50.228;18.936;2022-12-10T17:29:40;97518.47;;;-0.52;82.24
40117;BME280;25829;50.228;18.936;2022-12-10T17:33:03;97522.00;;;-0.53;82.36
40117;BME280;25829;50.228;18.936;2022-12-10T17:36:20;97524.13;;;-0.48;82.04
40117;BME280;25829;50.228;18.936;2022-12-10T17:39:22;97520.56;;;-0.39;82.45
40117;BME280;25829;50.228;18.936;2022-12-10T17:42:34;97521.53;;;-0.32;81.97
40117;BME280;25829;50.228;18.936;2022-12-10T17:45:44;97513.91;;;-0.25;81.44
40117;BME280;25829;50.228;18.936;2022-12-10T17:48:45;97520.06;;;-0.18;81.35
40117;BME280;25829;50.228;18.936;2022-12-10T17:51:58;97516.34;;;-0.16;81.16
40117;BME280;25829;50.228;18.936;2022-12-10T17:55:05;97512.97;;;-0.16;81.10
40117;BME280;25829;50.228;18.936;2022-12-10T17:58:06;97515.56;;;-0.16;81.45
40117;BME280;25829;50.228;18.936;2022-12-10T18:01:07;97503.88;;;-0.20;80.70
40117;BME280;25829;50.228;18.936;2022-12-10T18:04:09;97500.97;;;-0.25;81.37
40117;BME280;25829;50.228;18.936;2022-12-10T18:07:24;97492.06;;;-0.39;81.88
40117;BME280;25829;50.228;18.936;2022-12-10T18:10:27;97502.25;;;-0.46;81.97
40117;BME280;25829;50.228;18.936;2022-12-10T18:13:48;97497.91;;;-0.45;82.01
40117;BME280;25829;50.228;18.936;2022-12-10T18:16:49;97511.16;;;-0.40;82.54
40117;BME280;25829;50.228;18.936;2022-12-10T18:19:50;97496.44;;;-0.40;82.07
40117;BME280;25829;50.228;18.936;2022-12-10T18:22:52;97500.47;;;-0.37;81.90
40117;BME280;25829;50.228;18.936;2022-12-10T18:25:53;97510.19;;;-0.47;81.98
40117;BME280;25829;50.228;18.936;2022-12-10T18:28:56;97510.69;;;-0.52;82.41
40117;BME280;25829;50.228;18.936;2022-12-10T18:31:58;97506.31;;;-0.51;82.49
40117;BME280;25829;50.228;18.936;2022-12-10T18:35:01;97505.66;;;-0.53;82.23
40117;BME280;25829;50.228;18.936;2022-12-10T18:41:41;97505.50;;;-0.44;81.96
40117;BME280;25829;50.228;18.936;2022-12-10T18:44:51;97491.09;;;-0.38;82.22
40117;BME280;25829;50.228;18.936;2022-12-10T18:48:07;97498.56;;;-0.35;82.26
40117;BME280;25829;50.228;18.936;2022-12-10T18:51:11;97504.69;;;-0.44;81.84
40117;BME280;25829;50.228;18.936;2022-12-10T18:54:21;97501.94;;;-0.59;82.87
40117;BME280;25829;50.228;18.936;2022-12-10T18:57:22;97503.88;;;-0.69;82.98
40117;BME280;25829;50.228;18.936;2022-12-10T19:00:32;97494.94;;;-0.67;83.24
40117;BME280;25829;50.228;18.936;2022-12-10T19:03:38;97501.13;;;-0.60;83.22
40117;BME280;25829;50.228;18.936;2022-12-10T19:06:48;97502.88;;;-0.60;82.72
40117;BME280;25829;50.228;18.936;2022-12-10T19:09:49;97495.59;;;-0.65;83.27
40117;BME280;25829;50.228;18.936;2022-12-10T19:23:10;97491.22;;;-0.72;83.91
40117;BME280;25829;50.228;18.936;2022-12-10T19:26:24;97481.19;;;-0.67;83.32
40117;BME280;25829;50.228;18.936;2022-12-10T19:29:25;97486.84;;;-0.64;83.58
40117;BME280;25829;50.228;18.936;2022-12-10T19:32:27;97486.41;;;-0.59;83.19
40117;BME280;25829;50.228;18.936;2022-12-10T19:35:27;97492.69;;;-0.70;83.22
40117;BME280;25829;50.228;18.936;2022-12-10T19:38:28;97498.00;;;-0.71;83.55
40117;BME280;25829;50.228;18.936;2022-12-10T19:41:29;97493.50;;;-0.61;83.86
40117;BME280;25829;50.228;18.936;2022-12-10T19:44:30;97506.81;;;-0.56;82.93
40117;BME280;25829;50.228;18.936;2022-12-10T19:47:32;97505.00;;;-0.55;83.29
40117;BME280;25829;50.228;18.936;2022-12-10T19:50:33;97501.13;;;-0.51;82.84
40117;BME280;25829;50.228;18.936;2022-12-10T19:53:37;97496.75;;;-0.43;83.48
40117;BME280;25829;50.228;18.936;2022-12-10T19:56:40;97507.59;;;-0.39;82.49
40117;BME280;25829;50.228;18.936;2022-12-10T19:59:40;97501.78;;;-0.41;82.41
40117;BME280;25829;50.228;18.936;2022-12-10T20:02:41;97500.81;;;-0.40;82.57
40117;BME280;25829;50.228;18.936;2022-12-10T20:05:42;97493.34;;;-0.43;82.51
40117;BME280;25829;50.228;18.936;2022-12-10T20:08:46;97488.97;;;-0.51;82.22
40117;BME280;25829;50.228;18.936;2022-12-10T20:11:47;97474.09;;;-0.49;83.10
40117;BME280;25829;50.228;18.936;2022-12-10T20:14:51;97480.56;;;-0.45;82.84
40117;BME280;25829;50.228;18.936;2022-12-10T20:17:57;97481.69;;;-0.47;82.54
40117;BME280;25829;50.228;18.936;2022-12-10T20:20:58;97472.16;;;-0.55;82.47
40117;BME280;25829;50.228;18.936;2022-12-10T20:23:59;97484.44;;;-0.57;82.90
40117;BME280;25829;50.228;18.936;2022-12-10T20:27:04;97480.56;;;-0.61;82.80
40117;BME280;25829;50.228;18.936;2022-12-10T20:30:13;97470.69;;;-0.57;82.78
40117;BME280;25829;50.228;18.936;2022-12-10T20:33:14;97474.25;;;-0.58;82.29
40117;BME280;25829;50.228;18.936;2022-12-10T20:36:24;97469.88;;;-0.66;82.45
40117;BME280;25829;50.228;18.936;2022-12-10T20:39:31;97482.34;;;-0.70;82.91